createdAt,value
2019-01-11T00:00:47.628Z,80.70
2019-01-11T00:03:20.688Z,80.90
2019-01-11T00:05:53.618Z,80.50
2019-01-11T00:08:26.688Z,80.10
2019-01-11T00:10:59.408Z,80.20
2019-01-11T00:13:32.018Z,80.50
2019-01-11T00:16:05.449Z,80.40
2019-01-11T00:18:38.448Z,80.40
2019-01-11T00:21:12.638Z,80.00
2019-01-11T00:23:45.528Z,79.60
2019-01-11T00:26:19.147Z,79.20
2019-01-11T00:28:52.193Z,79.60
2019-01-11T00:31:25.737Z,79.60
2019-01-11T00:33:58.402Z,79.20
2019-01-11T00:36:31.128Z,79.70
2019-01-11T00:39:04.659Z,79.60
2019-01-11T00:41:38.077Z,79.40
2019-01-11T00:44:11.238Z,79.70
2019-01-11T00:46:44.347Z,79.60
2019-01-11T00:49:17.928Z,79.80
2019-01-11T00:51:51.519Z,79.80
2019-01-11T00:54:23.828Z,80.00
2019-01-11T00:56:56.488Z,80.10
2019-01-11T00:59:29.838Z,79.00
2019-01-11T01:02:03.148Z,79.10
2019-01-11T01:04:36.838Z,79.50
2019-01-11T01:07:10.348Z,79.80
2019-01-11T01:09:43.437Z,80.00
2019-01-11T01:12:17.258Z,79.50
2019-01-11T01:14:51.388Z,79.50
2019-01-11T01:17:24.657Z,79.70
2019-01-11T01:19:58.028Z,79.70
2019-01-11T01:22:35.059Z,79.70
2019-01-11T01:25:07.538Z,79.70
2019-01-11T01:27:40.938Z,79.70
2019-01-11T01:30:15.579Z,79.10
2019-01-11T01:32:49.278Z,79.40
2019-01-11T01:35:22.231Z,79.50
2019-01-11T01:37:54.917Z,79.60
2019-01-11T01:40:28.787Z,79.50
2019-01-11T01:43:01.519Z,79.50
2019-01-11T01:45:34.536Z,79.60
2019-01-11T01:48:07.079Z,79.90
2019-01-11T01:50:40.368Z,79.60
2019-01-11T01:53:13.269Z,79.50
2019-01-11T01:55:46.448Z,79.60
2019-01-11T01:58:19.957Z,79.40
2019-01-11T02:00:53.077Z,79.20
2019-01-11T02:03:25.947Z,79.10
2019-01-11T02:05:58.918Z,79.30
2019-01-11T02:08:32.007Z,79.50
2019-01-11T02:11:05.548Z,79.50
2019-01-11T02:13:38.032Z,79.80
2019-01-11T02:16:11.358Z,80.10
2019-01-11T02:18:45.137Z,80.00
2019-01-11T02:21:17.648Z,80.10
2019-01-11T02:23:51.297Z,80.00
2019-01-11T02:26:23.568Z,79.80
2019-01-11T02:28:56.916Z,79.60
2019-01-11T02:31:30.299Z,79.50
2019-01-11T02:34:03.501Z,79.30
2019-01-11T02:36:36.240Z,79.10
2019-01-11T02:39:09.749Z,79.10
2019-01-11T02:41:43.001Z,79.40
2019-01-11T02:44:16.918Z,79.50
2019-01-11T02:46:49.278Z,79.40
2019-01-11T02:49:22.622Z,79.20
2019-01-11T02:51:55.887Z,79.50
2019-01-11T02:54:27.739Z,79.20
2019-01-11T02:57:00.476Z,78.50
2019-01-11T02:59:34.018Z,79.30
2019-01-11T03:02:07.299Z,78.00
2019-01-11T03:04:40.658Z,78.00
2019-01-11T03:07:13.402Z,77.70
2019-01-11T03:09:46.317Z,77.70
2019-01-11T03:12:19.017Z,78.20
2019-01-11T03:14:52.407Z,78.80
2019-01-11T03:17:25.397Z,79.30
2019-01-11T03:19:58.848Z,79.30
2019-01-11T03:22:31.198Z,79.50
2019-01-11T03:25:04.237Z,79.80
2019-01-11T03:27:36.878Z,80.00
2019-01-11T03:30:11.730Z,79.70
2019-01-11T03:32:44.689Z,79.60
2019-01-11T03:35:18.329Z,79.70
2019-01-11T03:37:55.477Z,79.70
2019-01-11T03:40:29.517Z,79.40
2019-01-11T03:43:02.580Z,78.90
2019-01-11T03:45:35.685Z,78.90
2019-01-11T03:48:08.019Z,79.40
2019-01-11T03:50:41.629Z,79.40
2019-01-11T03:53:14.597Z,79.50
2019-01-11T03:55:47.047Z,79.30
2019-01-11T03:58:20.858Z,79.50
2019-01-11T04:00:54.138Z,79.40
2019-01-11T04:03:27.507Z,79.40
2019-01-11T04:05:59.868Z,79.30
2019-01-11T04:08:32.789Z,79.30
2019-01-11T04:11:06.019Z,79.70
2019-01-11T04:13:38.591Z,79.40
2019-01-11T04:16:11.216Z,79.10
2019-01-11T04:19:01.137Z,78.80
2019-01-11T04:21:33.978Z,78.60
2019-01-11T04:24:06.698Z,78.20
2019-01-11T04:26:39.427Z,78.10
2019-01-11T04:29:11.648Z,78.30
2019-01-11T04:31:45.398Z,78.60
2019-01-11T04:34:18.477Z,78.70
2019-01-11T04:36:51.609Z,78.70
2019-01-11T04:39:24.877Z,78.60
2019-01-11T04:41:57.673Z,78.60
2019-01-11T04:44:30.238Z,79.00
2019-01-11T04:47:03.418Z,79.10
2019-01-11T04:49:37.008Z,79.20
2019-01-11T04:52:10.288Z,79.50
2019-01-11T04:54:44.708Z,79.50
2019-01-11T04:57:18.197Z,79.00
2019-01-11T04:59:51.388Z,79.40
2019-01-11T05:02:23.638Z,79.10
2019-01-11T05:04:56.705Z,79.20
2019-01-11T05:07:29.378Z,79.20
2019-01-11T05:10:02.978Z,79.30
2019-01-11T05:12:36.588Z,79.50
2019-01-11T05:15:10.154Z,79.30
2019-01-11T05:17:43.480Z,79.50
2019-01-11T05:20:17.787Z,79.50
2019-01-11T05:22:51.200Z,78.80
2019-01-11T05:25:23.618Z,78.80
2019-01-11T05:27:56.709Z,79.30
2019-01-11T05:30:29.738Z,79.50
2019-01-11T05:33:02.850Z,79.80
2019-01-11T05:35:35.107Z,79.80
2019-01-11T05:38:08.852Z,79.50
2019-01-11T05:40:42.238Z,79.40
2019-01-11T05:43:15.297Z,79.00
2019-01-11T05:45:48.458Z,78.90
2019-01-11T05:48:21.604Z,79.10
2019-01-11T05:50:54.505Z,79.30
2019-01-11T05:53:27.149Z,79.70
2019-01-11T05:56:01.698Z,79.40
2019-01-11T05:58:38.030Z,78.90
2019-01-11T06:01:11.009Z,79.50
2019-01-11T06:03:44.358Z,79.10
2019-01-11T06:06:17.948Z,79.00
2019-01-11T06:08:51.549Z,79.20
2019-01-11T06:11:25.759Z,79.10
2019-01-11T06:13:59.317Z,79.20
2019-01-11T06:16:32.848Z,79.10
2019-01-11T06:19:06.118Z,78.60
2019-01-11T06:21:39.467Z,78.40
2019-01-11T06:24:13.098Z,78.40
2019-01-11T06:26:46.628Z,78.00
2019-01-11T06:29:19.317Z,78.20
2019-01-11T06:31:51.658Z,78.40
2019-01-11T06:34:24.607Z,78.40
2019-01-11T06:36:57.738Z,78.80
2019-01-11T06:39:30.368Z,78.70
2019-01-11T06:42:10.028Z,78.70
2019-01-11T06:44:43.088Z,78.60
2019-01-11T06:47:16.910Z,78.30
2019-01-11T06:49:49.718Z,78.60
2019-01-11T06:52:22.507Z,78.60
2019-01-11T06:54:55.878Z,78.10
2019-01-11T06:57:29.219Z,77.90
2019-01-11T07:00:02.227Z,77.70
2019-01-11T07:02:35.451Z,77.30
2019-01-11T07:05:08.217Z,77.70
2019-01-11T07:07:41.998Z,77.60
2019-01-11T07:10:18.410Z,77.60
2019-01-11T07:12:51.766Z,78.00
2019-01-11T07:15:25.298Z,78.30
2019-01-11T07:17:58.177Z,79.30
2019-01-11T07:20:31.368Z,77.80
2019-01-11T07:23:04.838Z,78.30
2019-01-11T07:25:38.327Z,78.70
2019-01-11T07:28:13.757Z,78.70
2019-01-11T07:31:03.838Z,78.50
2019-01-11T07:33:37.150Z,77.20
2019-01-11T07:36:28.137Z,76.80
2019-01-11T07:39:01.218Z,76.70
2019-01-11T07:41:34.818Z,77.00
2019-01-11T07:44:08.777Z,77.20
2019-01-11T07:46:42.338Z,77.70
2019-01-11T07:49:16.168Z,77.80
2019-01-11T07:51:49.768Z,77.30
2019-01-11T07:54:22.438Z,77.40
2019-01-11T07:56:55.301Z,77.20
2019-01-11T07:59:28.169Z,77.10
2019-01-11T08:02:02.497Z,76.70
2019-01-11T08:04:35.310Z,76.30
2019-01-11T08:07:08.649Z,77.70
2019-01-11T08:09:41.886Z,77.50
2019-01-11T08:12:14.738Z,76.90
2019-01-11T08:14:47.448Z,76.50
2019-01-11T08:17:20.810Z,76.90
2019-01-11T08:19:54.087Z,76.90
2019-01-11T08:22:45.527Z,77.70
2019-01-11T08:25:19.506Z,77.30
2019-01-11T08:27:51.867Z,76.60
2019-01-11T08:30:26.075Z,76.40
2019-01-11T08:32:59.948Z,76.50
2019-01-11T08:35:33.339Z,76.40
2019-01-11T08:38:06.862Z,76.10
2019-01-11T08:40:40.317Z,76.70
2019-01-11T08:43:13.070Z,77.30
2019-01-11T08:45:45.627Z,76.80
2019-01-11T08:48:18.117Z,76.40
2019-01-11T08:50:51.048Z,77.30
2019-01-11T08:53:38.472Z,77.40
2019-01-11T08:56:11.988Z,77.00
2019-01-11T08:58:44.918Z,76.90
2019-01-11T09:01:18.500Z,76.00
2019-01-11T09:03:51.002Z,76.30
2019-01-11T09:06:24.508Z,76.20
2019-01-11T09:08:58.551Z,75.60
2019-01-11T09:11:32.178Z,75.10
2019-01-11T09:14:06.340Z,74.60
2019-01-11T09:16:39.958Z,74.80
2019-01-11T09:19:13.798Z,75.00
2019-01-11T09:21:47.019Z,74.40
2019-01-11T09:24:19.877Z,74.70
2019-01-11T09:26:52.778Z,74.30
2019-01-11T09:29:25.607Z,74.00
2019-01-11T09:31:59.418Z,74.10
2019-01-11T09:34:32.260Z,74.10
2019-01-11T09:37:05.289Z,73.80
2019-01-11T09:39:38.228Z,74.50
2019-01-11T09:42:11.478Z,74.20
2019-01-11T09:44:45.121Z,74.50
2019-01-11T09:47:19.048Z,74.30
2019-01-11T09:49:52.820Z,74.50
2019-01-11T09:52:25.366Z,74.40
2019-01-11T09:54:58.428Z,74.80
2019-01-11T09:57:31.406Z,74.80
2019-01-11T10:00:03.958Z,75.30
2019-01-11T10:02:48.248Z,75.10
2019-01-11T10:05:21.727Z,75.20
2019-01-11T10:07:54.728Z,75.10
2019-01-11T10:10:27.388Z,75.50
2019-01-11T10:13:00.396Z,75.70
2019-01-11T10:15:33.707Z,75.60
2019-01-11T10:18:06.851Z,74.00
2019-01-11T10:20:40.408Z,73.90
2019-01-11T10:23:14.519Z,72.80
2019-01-11T10:25:47.138Z,72.80
2019-01-11T10:28:20.687Z,73.70
2019-01-11T10:30:53.887Z,73.70
2019-01-11T10:33:26.651Z,72.00
2019-01-11T10:36:00.767Z,71.60
2019-01-11T10:38:33.508Z,70.90
2019-01-11T10:41:06.198Z,71.60
2019-01-11T10:43:39.547Z,71.60
2019-01-11T10:46:31.018Z,72.10
2019-01-11T10:49:04.128Z,71.80
2019-01-11T10:51:36.387Z,71.40
2019-01-11T10:54:14.658Z,70.60
2019-01-11T10:56:48.719Z,71.60
2019-01-11T10:59:21.624Z,71.20
2019-01-11T11:01:56.307Z,70.40
2019-01-11T11:04:29.778Z,71.30
2019-01-11T11:07:03.429Z,71.70
2019-01-11T11:09:36.528Z,71.30
2019-01-11T11:12:09.441Z,71.20
2019-01-11T11:14:42.638Z,70.70
2019-01-11T11:17:16.266Z,71.20
2019-01-11T11:19:50.197Z,71.10
2019-01-11T11:22:23.827Z,70.50
2019-01-11T11:24:57.367Z,71.40
2019-01-11T11:27:30.625Z,71.40
2019-01-11T11:30:03.776Z,70.50
2019-01-11T11:32:50.998Z,70.20
2019-01-11T11:35:23.242Z,69.40
2019-01-11T11:37:56.557Z,69.60
2019-01-11T11:40:30.307Z,70.50
2019-01-11T11:43:03.887Z,71.30
2019-01-11T11:45:37.558Z,71.50
2019-01-11T11:48:11.905Z,70.60
2019-01-11T11:50:45.627Z,70.90
2019-01-11T11:53:18.939Z,70.40
2019-01-11T11:55:52.877Z,70.00
2019-01-11T11:58:26.257Z,69.50
2019-01-11T12:01:00.578Z,69.10
2019-01-11T12:03:33.667Z,69.20
2019-01-11T12:06:06.509Z,68.40
2019-01-11T12:08:40.168Z,69.60
2019-01-11T12:11:13.728Z,68.60
2019-01-11T12:13:46.547Z,69.00
2019-01-11T12:16:19.587Z,68.60
2019-01-11T12:18:53.077Z,69.20
2019-01-11T12:21:26.328Z,69.30
2019-01-11T12:24:00.430Z,68.20
2019-01-11T12:26:33.617Z,68.00
2019-01-11T12:29:07.368Z,67.80
2019-01-11T12:31:41.049Z,67.90
2019-01-11T12:34:14.027Z,67.00
2019-01-11T12:36:46.368Z,68.00
2019-01-11T12:39:19.466Z,68.00
2019-01-11T12:41:52.827Z,67.50
2019-01-11T12:44:26.178Z,67.70
2019-01-11T12:46:59.228Z,67.50
2019-01-11T12:49:32.708Z,67.90
2019-01-11T12:52:06.308Z,68.40
2019-01-11T12:54:40.398Z,68.60
2019-01-11T12:57:13.828Z,68.00
2019-01-11T12:59:46.887Z,67.80
2019-01-11T13:02:20.447Z,68.20
2019-01-11T13:04:55.438Z,68.40
2019-01-11T13:07:28.597Z,68.10
2019-01-11T13:10:02.018Z,68.20
2019-01-11T13:12:35.238Z,67.30
2019-01-11T13:15:09.158Z,68.40
2019-01-11T13:17:42.057Z,68.40
2019-01-11T13:20:16.396Z,68.80
2019-01-11T13:22:51.640Z,68.90
2019-01-11T13:25:25.058Z,68.90
2019-01-11T13:27:58.788Z,69.20
2019-01-11T13:30:32.371Z,69.00
2019-01-11T13:33:06.418Z,69.60
2019-01-11T13:35:38.818Z,69.60
2019-01-11T13:38:10.938Z,69.80
2019-01-11T13:40:44.367Z,69.50
2019-01-11T13:43:17.028Z,69.10
2019-01-11T13:45:51.137Z,70.20
2019-01-11T13:48:24.117Z,69.70
2019-01-11T13:50:57.677Z,69.20
2019-01-11T13:53:31.188Z,69.10
2019-01-11T13:56:04.997Z,69.00
2019-01-11T13:58:38.527Z,68.80
2019-01-11T14:01:11.147Z,69.00
2019-01-11T14:03:44.818Z,69.70
2019-01-11T14:06:18.418Z,69.40
2019-01-11T14:08:51.839Z,69.00
2019-01-11T14:11:24.968Z,70.40
2019-01-11T14:13:59.836Z,70.60
2019-01-11T14:16:33.819Z,70.40
2019-01-11T14:19:07.658Z,70.60
2019-01-11T14:21:40.307Z,70.00
2019-01-11T14:24:13.306Z,69.80
2019-01-11T14:26:47.478Z,69.70
2019-01-11T14:29:20.789Z,69.30
2019-01-11T14:31:53.457Z,68.70
2019-01-11T14:34:28.973Z,69.80
2019-01-11T14:37:02.518Z,68.00
2019-01-11T14:39:35.157Z,68.50
2019-01-11T14:42:07.250Z,68.50
2019-01-11T14:44:40.788Z,68.00
2019-01-11T14:47:15.338Z,68.00
2019-01-11T14:49:48.838Z,68.90
2019-01-11T14:52:22.918Z,68.00
2019-01-11T14:54:57.167Z,68.00
2019-01-11T14:57:31.827Z,67.00
2019-01-11T15:00:07.028Z,66.10
2019-01-11T15:02:39.778Z,68.00
2019-01-11T15:05:15.249Z,67.00
2019-01-11T15:07:48.149Z,67.50
2019-01-11T15:10:21.838Z,68.30
2019-01-11T15:12:55.339Z,68.40
2019-01-11T15:15:29.487Z,69.60
2019-01-11T15:18:02.707Z,69.20
2019-01-11T15:20:36.677Z,69.50
2019-01-11T15:23:13.503Z,69.30
2019-01-11T15:25:44.248Z,69.60
2019-01-11T15:28:17.438Z,70.70
2019-01-11T15:30:51.588Z,70.10
2019-01-11T15:33:25.807Z,69.90
2019-01-11T15:35:59.488Z,71.50
2019-01-11T15:38:33.451Z,70.80
2019-01-11T15:41:07.469Z,70.00
2019-01-11T15:43:40.068Z,71.80
2019-01-11T15:46:15.189Z,71.80
2019-01-11T15:48:55.527Z,71.60
2019-01-11T15:51:30.359Z,72.00
2019-01-11T15:54:04.898Z,70.90
2019-01-11T15:56:37.707Z,71.40
2019-01-11T15:59:11.968Z,70.30
2019-01-11T16:01:45.178Z,69.60
2019-01-11T16:04:18.578Z,69.40
2019-01-11T16:06:51.732Z,70.20
2019-01-11T16:09:59.069Z,70.40
2019-01-11T16:12:53.358Z,69.10
2019-01-11T16:15:49.484Z,68.60
2019-01-11T16:18:33.517Z,69.40
2019-01-11T16:21:06.627Z,68.50
2019-01-11T16:23:39.832Z,67.50
2019-01-11T16:26:10.978Z,67.70
2019-01-11T16:28:44.727Z,68.10
2019-01-11T16:31:21.628Z,67.70
2019-01-11T16:33:53.979Z,68.10
2019-01-11T16:36:28.388Z,69.50
2019-01-11T16:39:02.792Z,70.30
2019-01-11T16:41:35.771Z,69.40
2019-01-11T16:44:08.478Z,69.60
2019-01-11T16:46:41.828Z,69.80
2019-01-11T16:49:15.298Z,70.70
2019-01-11T16:51:47.925Z,70.90
2019-01-11T16:54:21.768Z,70.70
2019-01-11T16:56:55.327Z,70.40
2019-01-11T16:59:27.477Z,70.00
2019-01-11T17:02:00.503Z,69.60
2019-01-11T17:04:33.983Z,69.60
2019-01-11T17:07:07.178Z,70.10
2019-01-11T17:09:40.561Z,70.80
2019-01-11T17:12:12.797Z,70.80
2019-01-11T17:14:45.947Z,70.40
2019-01-11T17:17:19.617Z,71.80
2019-01-11T17:19:53.208Z,71.40
2019-01-11T17:22:26.458Z,71.50
2019-01-11T17:24:58.917Z,71.80
2019-01-11T17:27:33.238Z,71.40
2019-01-11T17:30:05.937Z,71.20
2019-01-11T17:32:38.660Z,71.50
2019-01-11T17:35:12.157Z,71.90
2019-01-11T17:37:45.487Z,72.10
2019-01-11T17:40:19.537Z,71.70
2019-01-11T17:42:52.247Z,71.90
2019-01-11T17:45:25.658Z,72.70
2019-01-11T17:47:59.077Z,72.80
2019-01-11T17:50:32.568Z,73.10
2019-01-11T17:53:06.128Z,73.40
2019-01-11T17:55:40.378Z,73.40
2019-01-11T17:58:14.878Z,73.50
2019-01-11T18:00:48.268Z,73.40
2019-01-11T18:03:21.351Z,73.90
2019-01-11T18:05:54.688Z,73.60
2019-01-11T18:08:28.448Z,73.10
2019-01-11T18:11:02.410Z,73.80
2019-01-11T18:13:35.739Z,74.10
2019-01-11T18:16:09.278Z,74.40
2019-01-11T18:18:42.557Z,74.00
2019-01-11T18:21:15.799Z,74.00
2019-01-11T18:23:48.708Z,74.20
2019-01-11T18:26:22.217Z,74.40
2019-01-11T18:28:55.738Z,74.30
2019-01-11T18:31:29.031Z,74.40
2019-01-11T18:34:02.298Z,73.80
2019-01-11T18:36:36.217Z,75.40
2019-01-11T18:39:11.137Z,75.40
2019-01-11T18:41:44.668Z,75.20
2019-01-11T18:44:17.928Z,75.50
2019-01-11T18:46:52.198Z,75.80
2019-01-11T18:49:25.975Z,76.40
2019-01-11T18:51:59.199Z,76.30
2019-01-11T18:54:33.207Z,76.60
2019-01-11T18:57:06.610Z,76.20
2019-01-11T18:59:40.758Z,76.70
2019-01-11T19:02:14.747Z,76.40
2019-01-11T19:04:48.099Z,76.60
2019-01-11T19:07:22.928Z,76.00
2019-01-11T19:09:55.911Z,76.20
2019-01-11T19:12:29.317Z,76.40
2019-01-11T19:15:02.588Z,76.00
2019-01-11T19:17:36.258Z,75.80
2019-01-11T19:20:15.158Z,76.20
2019-01-11T19:22:48.308Z,76.40
2019-01-11T19:25:20.728Z,76.10
2019-01-11T19:27:54.889Z,75.70
2019-01-11T19:30:30.978Z,75.60
2019-01-11T19:33:04.787Z,75.90
2019-01-11T19:35:38.461Z,76.00
2019-01-11T19:38:11.948Z,75.80
2019-01-11T19:40:45.367Z,76.00
2019-01-11T19:43:18.888Z,75.90
2019-01-11T19:45:51.651Z,76.10
2019-01-11T19:48:24.551Z,76.40
2019-01-11T19:50:58.108Z,76.50
2019-01-11T19:53:31.678Z,76.70
2019-01-11T19:56:05.157Z,76.90
2019-01-11T19:58:38.450Z,77.10
2019-01-11T20:01:11.739Z,76.90
2019-01-11T20:03:44.778Z,77.10
2019-01-11T20:06:17.788Z,77.30
2019-01-11T20:08:51.112Z,77.50
2019-01-11T20:11:24.058Z,77.70
2019-01-11T20:13:57.488Z,77.60
2019-01-11T20:16:30.718Z,77.50
2019-01-11T20:19:04.779Z,77.20
2019-01-11T20:21:38.598Z,77.60
2019-01-11T20:24:12.217Z,77.50
2019-01-11T20:26:46.128Z,77.70
2019-01-11T20:29:19.647Z,78.10
2019-01-11T20:31:51.838Z,78.50
2019-01-11T20:34:25.177Z,78.80
2019-01-11T20:37:08.991Z,78.60
2019-01-11T20:39:43.178Z,78.80
2019-01-11T20:42:16.452Z,79.10
2019-01-11T20:44:50.108Z,78.60
2019-01-11T20:47:23.477Z,79.00
2019-01-11T20:49:57.438Z,79.00
2019-01-11T20:52:30.776Z,78.60
2019-01-11T20:55:03.279Z,78.70
2019-01-11T20:57:36.108Z,78.30
2019-01-11T21:00:12.507Z,78.30
2019-01-11T21:02:46.758Z,78.20
2019-01-11T21:05:20.460Z,78.50
2019-01-11T21:07:53.698Z,78.40
2019-01-11T21:10:28.199Z,78.30
2019-01-11T21:13:01.527Z,78.50
2019-01-11T21:15:35.448Z,78.60
2019-01-11T21:18:09.788Z,78.50
2019-01-11T21:20:42.844Z,78.50
2019-01-11T21:23:16.468Z,78.90
2019-01-11T21:25:49.677Z,78.70
2019-01-11T21:28:24.518Z,78.50
2019-01-11T21:30:57.798Z,78.80
2019-01-11T21:33:30.829Z,78.90
2019-01-11T21:36:03.638Z,78.80
2019-01-11T21:38:36.807Z,79.20
2019-01-11T21:41:10.508Z,78.40
2019-01-11T21:43:43.518Z,78.60
2019-01-11T21:46:16.319Z,79.00
2019-01-11T21:48:49.568Z,78.80
2019-01-11T21:51:22.858Z,78.20
2019-01-11T21:53:56.318Z,78.30
2019-01-11T21:56:29.218Z,78.10
2019-01-11T21:59:02.458Z,78.10
2019-01-11T22:01:35.588Z,78.20
2019-01-11T22:04:09.599Z,78.30
2019-01-11T22:06:43.018Z,78.30
2019-01-11T22:09:16.083Z,77.80
2019-01-11T22:11:49.937Z,78.00
2019-01-11T22:14:23.588Z,77.60
2019-01-11T22:16:56.828Z,78.20
2019-01-11T22:19:30.958Z,78.20
2019-01-11T22:22:04.038Z,77.80
2019-01-11T22:24:37.568Z,78.00
2019-01-11T22:27:10.901Z,78.00
2019-01-11T22:29:43.617Z,77.80
2019-01-11T22:32:16.927Z,78.00
2019-01-11T22:34:49.979Z,78.10
2019-01-11T22:37:23.291Z,77.70
2019-01-11T22:39:56.158Z,77.90
2019-01-11T22:42:29.687Z,77.70
2019-01-11T22:45:02.218Z,78.00
2019-01-11T22:47:35.358Z,78.10
2019-01-11T22:50:08.618Z,78.00
2019-01-11T22:52:42.087Z,78.30
2019-01-11T22:55:16.217Z,78.20
2019-01-11T22:57:49.110Z,78.40
2019-01-11T23:00:51.267Z,78.20
2019-01-11T23:03:27.377Z,77.80
2019-01-11T23:06:09.053Z,78.60
2019-01-11T23:08:39.427Z,78.90
2019-01-11T23:11:55.120Z,78.90
2019-01-11T23:14:28.917Z,78.80
2019-01-11T23:17:27.737Z,79.20
2019-01-11T23:20:00.241Z,79.10
2019-01-11T23:22:33.108Z,79.00
2019-01-11T23:25:06.558Z,79.20
2019-01-11T23:27:40.258Z,78.40
2019-01-11T23:30:16.709Z,78.60
2019-01-11T23:32:49.027Z,78.80
2019-01-11T23:35:22.296Z,78.30
2019-01-11T23:37:55.397Z,78.50
2019-01-11T23:40:28.728Z,78.40
2019-01-11T23:43:02.658Z,78.60
2019-01-11T23:45:36.199Z,79.10
2019-01-11T23:48:09.307Z,78.80
2019-01-11T23:50:41.919Z,78.70
2019-01-11T23:53:14.878Z,78.50
2019-01-11T23:55:48.907Z,78.80
2019-01-11T23:58:22.486Z,78.90
